createdAt,value
2019-06-15T00:02:05.719Z,26.77
2019-06-15T00:04:35.777Z,27.50
2019-06-15T00:07:05.983Z,27.63
2019-06-15T00:09:35.943Z,27.50
2019-06-15T00:12:06.244Z,27.00
2019-06-15T00:14:36.346Z,27.47
2019-06-15T00:17:06.697Z,27.90
2019-06-15T00:19:36.795Z,26.87
2019-06-15T00:22:06.895Z,26.33
2019-06-15T00:24:40.446Z,26.77
2019-06-15T00:27:09.110Z,25.10
2019-06-15T00:29:38.980Z,25.67
2019-06-15T00:32:09.002Z,25.10
2019-06-15T00:34:39.079Z,26.00
2019-06-15T00:37:09.278Z,24.70
2019-06-15T00:39:39.395Z,23.87
2019-06-15T00:42:09.386Z,23.93
2019-06-15T00:44:39.427Z,23.57
2019-06-15T00:47:09.416Z,24.30
2019-06-15T00:49:39.622Z,22.83
2019-06-15T00:52:10.012Z,22.87
2019-06-15T00:54:49.886Z,21.93
2019-06-15T00:57:12.810Z,22.93
2019-06-15T00:59:43.016Z,22.43
2019-06-15T01:02:13.137Z,23.50
2019-06-15T01:04:43.251Z,23.03
2019-06-15T01:07:13.970Z,24.00
2019-06-15T01:09:44.110Z,23.10
2019-06-15T01:12:14.158Z,22.97
2019-06-15T01:14:44.300Z,21.10
2019-06-15T01:17:14.545Z,21.00
2019-06-15T01:19:44.604Z,20.67
2019-06-15T01:22:14.844Z,20.57
2019-06-15T01:24:45.045Z,19.77
2019-06-15T01:27:15.145Z,18.47
2019-06-15T01:29:45.281Z,18.37
2019-06-15T01:32:15.500Z,19.77
2019-06-15T01:34:45.597Z,18.23
2019-06-15T01:37:15.598Z,17.97
2019-06-15T01:39:45.770Z,18.03
2019-06-15T01:42:15.854Z,17.30
2019-06-15T01:44:45.911Z,18.23
2019-06-15T01:47:16.230Z,17.20
2019-06-15T01:49:47.547Z,18.07
2019-06-15T01:52:17.928Z,17.40
2019-06-15T01:54:48.116Z,17.90
2019-06-15T01:57:18.237Z,18.93
2019-06-15T01:59:48.265Z,17.87
2019-06-15T02:02:18.434Z,17.13
2019-06-15T02:04:48.517Z,18.13
2019-06-15T02:07:18.695Z,17.10
2019-06-15T02:09:48.747Z,18.77
2019-06-15T02:12:18.891Z,18.43
2019-06-15T02:14:49.918Z,18.90
2019-06-15T02:17:21.764Z,18.30
2019-06-15T02:19:51.993Z,19.00
2019-06-15T02:22:22.132Z,19.17
2019-06-15T02:24:51.924Z,20.70
2019-06-15T02:27:22.143Z,19.43
2019-06-15T02:29:52.217Z,20.33
2019-06-15T02:32:22.274Z,20.57
2019-06-15T02:34:52.200Z,21.00
2019-06-15T02:37:22.594Z,21.40
2019-06-15T02:39:52.838Z,23.83
2019-06-15T02:42:22.983Z,23.83
2019-06-15T02:44:53.085Z,24.27
2019-06-15T02:47:23.112Z,23.77
2019-06-15T02:49:53.153Z,24.87
2019-06-15T02:52:24.163Z,23.83
2019-06-15T02:54:54.181Z,24.43
2019-06-15T02:57:24.435Z,24.13
2019-06-15T02:59:55.156Z,24.07
2019-06-15T03:02:25.362Z,23.70
2019-06-15T03:04:55.608Z,24.30
2019-06-15T03:07:25.905Z,23.57
2019-06-15T03:09:56.285Z,25.60
2019-06-15T03:12:26.261Z,26.10
2019-06-15T03:14:57.134Z,24.10
2019-06-15T03:17:27.332Z,25.23
2019-06-15T03:19:57.552Z,25.63
2019-06-15T03:22:27.650Z,24.80
2019-06-15T03:24:57.869Z,25.70
2019-06-15T03:27:27.887Z,24.03
2019-06-15T03:29:58.124Z,23.90
2019-06-15T03:32:28.148Z,24.87
2019-06-15T03:34:58.359Z,24.00
2019-06-15T03:37:28.678Z,24.43
2019-06-15T03:39:58.643Z,22.10
2019-06-15T03:42:28.699Z,23.87
2019-06-15T03:44:58.663Z,20.73
2019-06-15T03:47:28.699Z,22.90
2019-06-15T03:49:58.660Z,22.97
2019-06-15T03:52:28.895Z,23.13
2019-06-15T03:54:58.907Z,21.73
2019-06-15T03:57:29.235Z,22.03
2019-06-15T03:59:59.357Z,22.13
2019-06-15T04:02:29.355Z,20.10
2019-06-15T04:04:59.232Z,21.73
2019-06-15T04:07:29.304Z,20.50
2019-06-15T04:09:59.440Z,20.53
2019-06-15T04:12:29.595Z,19.20
2019-06-15T04:14:59.683Z,17.03
2019-06-15T04:17:30.006Z,18.27
2019-06-15T04:20:00.220Z,17.43
2019-06-15T04:22:30.647Z,18.27
2019-06-15T04:25:00.933Z,17.47
2019-06-15T04:27:31.763Z,16.63
2019-06-15T04:30:02.277Z,17.73
2019-06-15T04:32:32.412Z,15.00
2019-06-15T04:35:02.566Z,15.70
2019-06-15T04:37:33.013Z,15.37
2019-06-15T04:40:03.691Z,15.00
2019-06-15T04:42:33.828Z,16.17
2019-06-15T04:45:04.219Z,16.57
2019-06-15T04:47:34.305Z,16.03
2019-06-15T04:50:05.532Z,16.87
2019-06-15T04:52:35.696Z,17.87
2019-06-15T04:55:07.720Z,17.23
2019-06-15T04:57:38.252Z,18.03
2019-06-15T05:00:11.998Z,16.57
2019-06-15T05:02:42.203Z,16.50
2019-06-15T05:05:12.751Z,18.40
2019-06-15T05:07:42.712Z,16.27
2019-06-15T05:10:13.302Z,16.57
2019-06-15T05:12:43.486Z,16.83
2019-06-15T05:15:13.685Z,16.77
2019-06-15T05:17:46.232Z,15.90
2019-06-15T05:20:16.112Z,17.10
2019-06-15T05:22:46.358Z,15.40
2019-06-15T05:25:16.488Z,16.13
2019-06-15T05:27:46.725Z,16.57
2019-06-15T05:30:17.087Z,16.60
2019-06-15T05:32:47.436Z,19.63
2019-06-15T05:35:17.649Z,19.13
2019-06-15T05:37:47.869Z,17.33
2019-06-15T05:40:18.370Z,17.17
2019-06-15T05:42:48.630Z,17.07
2019-06-15T05:45:19.276Z,18.10
2019-06-15T05:47:49.381Z,16.87
2019-06-15T05:50:19.689Z,17.17
2019-06-15T05:52:50.031Z,20.57
2019-06-15T05:55:20.580Z,20.10
2019-06-15T05:57:50.725Z,18.53
2019-06-15T06:00:21.011Z,19.77
2019-06-15T06:02:51.116Z,19.30
2019-06-15T06:05:21.452Z,20.00
2019-06-15T06:07:51.554Z,19.10
2019-06-15T06:10:21.780Z,19.93
2019-06-15T06:12:51.901Z,20.93
2019-06-15T06:15:22.111Z,21.33
2019-06-15T06:17:52.248Z,22.13
2019-06-15T06:20:22.476Z,20.43
2019-06-15T06:22:52.592Z,20.17
2019-06-15T06:25:22.717Z,20.83
2019-06-15T06:27:52.725Z,22.47
2019-06-15T06:30:22.851Z,20.37
2019-06-15T06:32:53.233Z,22.10
2019-06-15T06:35:23.312Z,22.23
2019-06-15T06:37:55.096Z,25.20
2019-06-15T06:40:25.401Z,24.40
2019-06-15T06:42:55.709Z,22.47
2019-06-15T06:45:26.426Z,21.33
2019-06-15T06:47:56.672Z,21.43
2019-06-15T06:50:26.685Z,20.23
2019-06-15T06:52:57.031Z,20.63
2019-06-15T06:55:27.454Z,20.43
2019-06-15T06:57:57.547Z,23.13
2019-06-15T07:00:27.652Z,21.67
2019-06-15T07:02:57.794Z,20.70
2019-06-15T07:05:28.018Z,19.63
2019-06-15T07:07:58.232Z,22.83
2019-06-15T07:10:28.348Z,22.47
2019-06-15T07:12:58.386Z,22.97
2019-06-15T07:15:29.790Z,23.50
2019-06-15T07:17:59.723Z,21.37
2019-06-15T07:20:29.627Z,22.77
2019-06-15T07:22:59.895Z,23.73
2019-06-15T07:25:30.000Z,23.60
2019-06-15T07:28:08.092Z,22.37
2019-06-15T07:30:31.843Z,22.93
2019-06-15T07:33:01.878Z,22.40
2019-06-15T07:35:31.974Z,22.63
2019-06-15T07:38:02.331Z,24.80
2019-06-15T07:40:32.431Z,24.80
2019-06-15T07:43:02.623Z,22.83
2019-06-15T07:45:32.789Z,22.73
2019-06-15T07:48:03.033Z,19.03
2019-06-15T07:50:34.331Z,18.93
2019-06-15T07:53:04.616Z,17.57
2019-06-15T07:55:35.435Z,18.33
2019-06-15T07:58:05.548Z,16.53
2019-06-15T08:00:35.576Z,14.97
2019-06-15T08:03:05.785Z,14.80
2019-06-15T08:05:35.954Z,15.00
2019-06-15T08:08:06.249Z,14.07
2019-06-15T08:10:36.148Z,13.63
2019-06-15T08:13:06.349Z,14.57
2019-06-15T08:15:36.749Z,13.60
2019-06-15T08:18:09.622Z,13.40
2019-06-15T08:20:38.656Z,12.63
2019-06-15T08:23:09.691Z,12.27
2019-06-15T08:25:39.819Z,10.83
2019-06-15T08:28:10.142Z,10.43
2019-06-15T08:30:44.579Z,12.03
2019-06-15T08:33:14.504Z,11.17
2019-06-15T08:35:44.742Z,10.40
2019-06-15T08:38:14.727Z,10.37
2019-06-15T08:40:44.829Z,11.37
2019-06-15T08:43:14.688Z,9.77
2019-06-15T08:45:44.718Z,9.57
2019-06-15T08:48:14.889Z,11.50
2019-06-15T08:50:45.164Z,10.50
2019-06-15T08:53:15.253Z,10.57
2019-06-15T08:55:45.372Z,9.63
2019-06-15T08:58:15.460Z,8.60
2019-06-15T09:00:45.593Z,8.57
2019-06-15T09:03:15.655Z,8.37
2019-06-15T09:05:45.687Z,8.43
2019-06-15T09:08:15.711Z,8.10
2019-06-15T09:10:45.588Z,8.57
2019-06-15T09:13:15.941Z,7.87
2019-06-15T09:15:51.327Z,7.57
2019-06-15T09:18:21.977Z,7.63
2019-06-15T09:20:52.021Z,8.10
2019-06-15T09:23:21.964Z,7.57
2019-06-15T09:25:52.067Z,8.20
2019-06-15T09:28:22.270Z,7.80
2019-06-15T09:30:52.387Z,7.40
2019-06-15T09:33:22.652Z,7.80
2019-06-15T09:35:52.738Z,7.57
2019-06-15T09:38:22.755Z,7.53
2019-06-15T09:40:54.228Z,7.40
2019-06-15T09:43:24.587Z,7.17
2019-06-15T09:45:54.509Z,7.70
2019-06-15T09:48:24.577Z,7.43
2019-06-15T09:50:56.300Z,8.23
2019-06-15T09:53:26.470Z,8.03
2019-06-15T09:55:56.506Z,8.03
2019-06-15T09:58:26.819Z,9.00
2019-06-15T10:00:56.983Z,8.47
2019-06-15T10:03:27.067Z,8.23
2019-06-15T10:05:57.133Z,8.80
2019-06-15T10:08:27.139Z,8.77
2019-06-15T10:10:57.243Z,7.90
2019-06-15T10:13:27.380Z,8.40
2019-06-15T10:15:57.435Z,7.97
2019-06-15T10:18:27.845Z,8.20
2019-06-15T10:20:57.759Z,8.80
2019-06-15T10:23:28.429Z,8.13
2019-06-15T10:25:58.742Z,8.40
2019-06-15T10:28:28.860Z,8.80
2019-06-15T10:31:00.794Z,9.90
2019-06-15T10:33:31.242Z,8.77
2019-06-15T10:36:01.254Z,8.57
2019-06-15T10:38:31.383Z,9.50
2019-06-15T10:41:01.498Z,9.87
2019-06-15T10:43:31.589Z,10.43
2019-06-15T10:46:01.604Z,10.90
2019-06-15T10:48:31.856Z,8.87
2019-06-15T10:51:01.995Z,9.03
2019-06-15T10:53:31.892Z,10.50
2019-06-15T10:56:01.978Z,10.83
2019-06-15T10:58:31.819Z,9.37
2019-06-15T11:01:01.948Z,9.93
2019-06-15T11:03:32.162Z,9.10
2019-06-15T11:06:02.530Z,9.33
2019-06-15T11:08:34.009Z,8.67
2019-06-15T11:11:16.432Z,9.17
2019-06-15T11:13:46.790Z,8.67
2019-06-15T11:16:17.457Z,8.50
2019-06-15T11:18:48.071Z,6.93
2019-06-15T11:21:18.367Z,6.70
2019-06-15T11:23:48.348Z,6.23
2019-06-15T11:26:18.501Z,5.43
2019-06-15T11:28:48.739Z,5.20
2019-06-15T11:31:18.931Z,5.50
2019-06-15T11:33:48.952Z,5.50
2019-06-15T11:36:19.096Z,6.50
2019-06-15T11:38:49.107Z,5.40
2019-06-15T11:41:19.439Z,5.50
2019-06-15T11:43:49.501Z,5.93
2019-06-15T11:46:20.045Z,5.30
2019-06-15T11:48:50.302Z,4.80
2019-06-15T11:51:20.531Z,6.40
2019-06-15T11:53:50.681Z,5.60
2019-06-15T11:56:20.887Z,6.20
2019-06-15T11:58:50.995Z,6.17
2019-06-15T12:01:21.216Z,6.37
2019-06-15T12:03:51.331Z,5.97
2019-06-15T12:06:21.768Z,5.90
2019-06-15T12:08:51.938Z,5.93
2019-06-15T12:11:22.105Z,5.50
2019-06-15T12:13:52.297Z,6.30
2019-06-15T12:16:22.543Z,5.90
2019-06-15T12:18:52.912Z,5.70
2019-06-15T12:21:23.113Z,5.93
2019-06-15T12:23:53.002Z,5.83
2019-06-15T12:26:23.023Z,5.57
2019-06-15T12:28:52.896Z,6.17
2019-06-15T12:31:22.928Z,6.40
2019-06-15T12:33:52.897Z,7.73
2019-06-15T12:36:22.933Z,7.23
2019-06-15T12:38:52.910Z,6.43
2019-06-15T12:41:22.943Z,7.23
2019-06-15T12:43:52.949Z,7.30
2019-06-15T12:46:23.181Z,6.70
2019-06-15T12:48:53.088Z,7.10
2019-06-15T12:51:23.200Z,6.73
2019-06-15T12:53:53.318Z,6.97
2019-06-15T12:56:23.527Z,7.37
2019-06-15T12:58:53.797Z,7.37
2019-06-15T13:01:23.942Z,7.83
2019-06-15T13:03:54.036Z,8.37
2019-06-15T13:06:24.149Z,7.60
2019-06-15T13:08:54.347Z,7.33
2019-06-15T13:11:24.699Z,7.53
2019-06-15T13:13:54.846Z,7.40
2019-06-15T13:16:38.655Z,7.37
2019-06-15T13:18:56.586Z,7.70
2019-06-15T13:21:26.692Z,8.33
2019-06-15T13:23:56.927Z,9.00
2019-06-15T13:26:27.143Z,9.93
2019-06-15T13:28:57.368Z,8.60
2019-06-15T13:31:27.506Z,10.67
2019-06-15T13:33:57.434Z,10.20
2019-06-15T13:36:27.407Z,11.63
2019-06-15T13:38:58.356Z,12.17
2019-06-15T13:41:28.450Z,10.83
2019-06-15T13:43:58.373Z,12.20
2019-06-15T13:46:28.307Z,11.90
2019-06-15T13:48:58.393Z,11.93
2019-06-15T13:51:28.638Z,10.27
2019-06-15T13:53:58.668Z,11.60
2019-06-15T13:56:28.776Z,10.80
2019-06-15T13:58:59.024Z,10.40
2019-06-15T14:01:34.126Z,9.97
2019-06-15T14:04:01.022Z,12.10
2019-06-15T14:06:31.199Z,10.03
2019-06-15T14:09:01.357Z,9.83
2019-06-15T14:11:31.345Z,10.60
2019-06-15T14:14:01.286Z,10.27
2019-06-15T14:16:31.702Z,9.67
2019-06-15T14:19:01.625Z,9.43
2019-06-15T14:21:33.107Z,9.77
2019-06-15T14:24:03.392Z,9.50
2019-06-15T14:26:33.537Z,9.10
2019-06-15T14:29:03.679Z,8.60
2019-06-15T14:31:46.691Z,8.37
2019-06-15T14:34:05.519Z,8.20
2019-06-15T14:36:35.539Z,8.87
2019-06-15T14:39:07.390Z,7.83
2019-06-15T14:41:37.539Z,9.03
2019-06-15T14:44:07.674Z,8.37
2019-06-15T14:46:38.058Z,8.50
2019-06-15T14:49:08.397Z,7.63
2019-06-15T14:51:39.804Z,8.73
2019-06-15T14:54:10.071Z,8.50
2019-06-15T14:56:40.037Z,8.37
2019-06-15T14:59:10.088Z,8.90
2019-06-15T15:01:40.356Z,8.73
2019-06-15T15:04:10.564Z,8.70
2019-06-15T15:06:40.766Z,9.43
2019-06-15T15:09:10.893Z,10.83
2019-06-15T15:11:40.959Z,9.93
2019-06-15T15:14:10.939Z,9.63
2019-06-15T15:16:41.132Z,10.37
2019-06-15T15:19:11.249Z,10.27
2019-06-15T15:21:41.544Z,10.30
2019-06-15T15:24:11.702Z,10.37
2019-06-15T15:26:41.756Z,10.37
2019-06-15T15:29:11.730Z,10.07
2019-06-15T15:31:41.718Z,11.10
2019-06-15T15:34:11.768Z,10.53
2019-06-15T15:36:41.792Z,10.43
2019-06-15T15:39:11.917Z,11.03
2019-06-15T15:41:42.136Z,10.57
2019-06-15T15:44:12.111Z,10.50
2019-06-15T15:46:42.042Z,12.03
2019-06-15T15:49:12.189Z,12.50
2019-06-15T15:51:42.312Z,14.10
2019-06-15T15:54:12.327Z,17.27
2019-06-15T15:56:42.305Z,15.47
2019-06-15T15:59:12.305Z,19.67
2019-06-15T16:01:42.384Z,21.33
2019-06-15T16:04:12.299Z,19.07
2019-06-15T16:06:42.306Z,16.23
2019-06-15T16:09:12.224Z,15.73
2019-06-15T16:11:42.335Z,14.87
2019-06-15T16:14:12.573Z,16.17
2019-06-15T16:16:42.589Z,16.20
2019-06-15T16:19:12.684Z,16.30
2019-06-15T16:21:42.828Z,15.50
2019-06-15T16:24:12.955Z,21.83
2019-06-15T16:26:42.967Z,18.53
2019-06-15T16:29:12.977Z,16.57
2019-06-15T16:31:43.035Z,16.60
2019-06-15T16:34:13.030Z,12.67
2019-06-15T16:36:43.344Z,12.00
2019-06-15T16:39:13.481Z,11.67
2019-06-15T16:41:43.700Z,10.47
2019-06-15T16:44:14.032Z,10.13
2019-06-15T16:46:44.090Z,11.07
2019-06-15T16:49:16.699Z,10.50
2019-06-15T16:51:46.590Z,11.37
2019-06-15T16:54:17.180Z,10.33
2019-06-15T16:56:47.370Z,9.23
2019-06-15T16:59:17.474Z,10.27
2019-06-15T17:01:47.695Z,8.80
2019-06-15T17:04:18.062Z,8.67
2019-06-15T17:06:48.377Z,8.37
2019-06-15T17:09:18.744Z,8.47
2019-06-15T17:11:49.337Z,8.13
2019-06-15T17:14:20.064Z,7.83
2019-06-15T17:16:50.439Z,6.50
2019-06-15T17:19:20.821Z,6.77
2019-06-15T17:21:50.956Z,5.80
2019-06-15T17:24:21.244Z,5.20
2019-06-15T17:26:51.363Z,5.03
2019-06-15T17:29:21.509Z,4.57
2019-06-15T17:31:51.726Z,4.23
2019-06-15T17:34:21.849Z,3.97
2019-06-15T17:36:51.946Z,3.53
2019-06-15T17:39:22.090Z,4.07
2019-06-15T17:41:52.215Z,3.90
2019-06-15T17:44:22.345Z,4.20
2019-06-15T17:46:52.452Z,3.70
2019-06-15T17:49:22.485Z,3.90
2019-06-15T17:51:52.670Z,3.50
2019-06-15T17:54:22.813Z,3.10
2019-06-15T17:56:52.925Z,2.70
2019-06-15T17:59:23.170Z,3.33
2019-06-15T18:01:53.271Z,3.07
2019-06-15T18:04:23.353Z,2.87
2019-06-15T18:06:53.427Z,2.70
2019-06-15T18:09:25.792Z,3.30
2019-06-15T18:11:57.116Z,2.53
2019-06-15T18:14:26.950Z,2.70
2019-06-15T18:16:58.278Z,3.20
2019-06-15T18:19:30.554Z,3.40
2019-06-15T18:22:00.596Z,3.17
2019-06-15T18:24:30.607Z,3.10
2019-06-15T18:27:00.877Z,3.10
2019-06-15T18:29:31.071Z,3.30
2019-06-15T18:32:01.412Z,3.17
2019-06-15T18:34:31.679Z,3.13
2019-06-15T18:37:01.831Z,3.00
2019-06-15T18:39:31.817Z,3.30
2019-06-15T18:42:01.994Z,3.40
2019-06-15T18:44:32.287Z,3.43
2019-06-15T18:47:02.521Z,3.60
2019-06-15T18:49:32.844Z,3.80
2019-06-15T18:52:03.148Z,3.73
2019-06-15T18:54:36.300Z,4.37
2019-06-15T18:57:07.265Z,3.87
2019-06-15T18:59:36.899Z,4.30
2019-06-15T19:02:07.302Z,4.67
2019-06-15T19:04:37.601Z,4.57
2019-06-15T19:07:08.317Z,4.20
2019-06-15T19:09:40.826Z,4.70
2019-06-15T19:12:16.956Z,5.50
2019-06-15T19:14:47.817Z,6.00
2019-06-15T19:17:19.871Z,6.90
2019-06-15T19:19:53.875Z,7.17
2019-06-15T19:22:27.159Z,6.87
2019-06-15T19:24:58.519Z,7.90
2019-06-15T19:27:31.497Z,9.37
2019-06-15T19:30:01.797Z,11.70
2019-06-15T19:32:36.621Z,13.70
2019-06-15T19:35:06.992Z,13.70
2019-06-15T19:37:37.217Z,14.80
2019-06-15T19:40:10.415Z,14.33
2019-06-15T19:42:40.674Z,15.03
2019-06-15T19:45:11.824Z,14.63
2019-06-15T19:47:42.158Z,15.70
2019-06-15T19:50:16.488Z,16.03
2019-06-15T19:52:46.156Z,15.90
2019-06-15T19:55:16.563Z,14.33
2019-06-15T19:57:46.661Z,14.47
2019-06-15T20:00:17.343Z,14.27
2019-06-15T20:02:48.176Z,14.93
2019-06-15T20:05:20.695Z,14.03
2019-06-15T20:07:51.491Z,12.73
2019-06-15T20:10:22.174Z,14.70
2019-06-15T20:12:52.374Z,13.23
2019-06-15T20:15:25.331Z,12.60
2019-06-15T20:17:56.818Z,11.40
2019-06-15T20:20:26.649Z,12.07
2019-06-15T20:22:57.681Z,11.57
2019-06-15T20:25:28.040Z,11.33
2019-06-15T20:27:58.715Z,11.43
2019-06-15T20:30:29.098Z,10.50
2019-06-15T20:32:59.357Z,10.73
2019-06-15T20:35:31.761Z,11.33
2019-06-15T20:38:01.959Z,10.03
2019-06-15T20:40:32.084Z,8.90
2019-06-15T20:43:02.279Z,8.53
2019-06-15T20:45:32.348Z,9.13
2019-06-15T20:48:02.521Z,8.43
2019-06-15T20:50:32.779Z,6.73
2019-06-15T20:53:03.083Z,6.90
2019-06-15T20:55:33.118Z,5.50
2019-06-15T20:58:06.212Z,5.37
2019-06-15T21:00:36.718Z,4.50
2019-06-15T21:03:07.091Z,4.33
2019-06-15T21:05:41.566Z,4.23
2019-06-15T21:08:08.852Z,4.97
2019-06-15T21:10:39.056Z,4.97
2019-06-15T21:13:09.083Z,4.37
2019-06-15T21:15:42.379Z,4.27
2019-06-15T21:18:12.384Z,3.90
2019-06-15T21:20:43.145Z,2.70
2019-06-15T21:23:16.128Z,2.80
2019-06-15T21:25:46.774Z,2.77
2019-06-15T21:28:17.266Z,3.30
2019-06-15T21:30:48.944Z,2.60
2019-06-15T21:33:18.944Z,2.87
2019-06-15T21:35:52.631Z,2.90
2019-06-15T21:38:20.676Z,2.17
2019-06-15T21:40:50.794Z,2.90
2019-06-15T21:43:20.960Z,2.90
2019-06-15T21:45:51.266Z,2.67
2019-06-15T21:48:21.580Z,2.60
2019-06-15T21:50:51.735Z,3.17
2019-06-15T21:53:21.753Z,2.37
2019-06-15T21:55:51.798Z,2.50
2019-06-15T21:58:21.973Z,2.83
2019-06-15T22:01:26.187Z,2.40
2019-06-15T22:03:56.542Z,2.93
2019-06-15T22:06:26.533Z,2.53
2019-06-15T22:08:56.651Z,3.17
2019-06-15T22:11:26.816Z,2.53
2019-06-15T22:13:57.314Z,3.30
2019-06-15T22:16:27.785Z,2.77
2019-06-15T22:18:57.935Z,3.13
2019-06-15T22:21:28.304Z,3.00
2019-06-15T22:23:58.418Z,2.57
2019-06-15T22:26:28.881Z,2.90
2019-06-15T22:28:58.878Z,2.97
2019-06-15T22:31:28.994Z,2.70
2019-06-15T22:33:59.100Z,2.90
2019-06-15T22:36:29.335Z,3.20
2019-06-15T22:38:59.424Z,2.90
2019-06-15T22:41:29.671Z,3.27
2019-06-15T22:43:59.653Z,3.13
2019-06-15T22:46:29.609Z,3.40
2019-06-15T22:48:59.467Z,3.03
2019-06-15T22:51:29.659Z,3.43
2019-06-15T22:53:59.773Z,2.90
2019-06-15T22:56:30.016Z,2.70
2019-06-15T22:59:00.112Z,2.90
2019-06-15T23:01:30.352Z,3.87
2019-06-15T23:04:00.562Z,3.10
2019-06-15T23:06:37.432Z,3.77
2019-06-15T23:09:02.510Z,4.10
2019-06-15T23:11:32.653Z,3.50
2019-06-15T23:14:02.780Z,3.50
2019-06-15T23:16:32.910Z,3.67
2019-06-15T23:19:07.716Z,4.03
2019-06-15T23:21:37.553Z,4.20
2019-06-15T23:24:07.684Z,4.17
2019-06-15T23:26:37.857Z,3.93
2019-06-15T23:29:08.192Z,4.00
2019-06-15T23:31:38.261Z,3.57
2019-06-15T23:34:08.550Z,4.27
2019-06-15T23:36:53.029Z,4.60
2019-06-15T23:39:12.170Z,4.10
2019-06-15T23:41:42.218Z,5.83
2019-06-15T23:44:12.429Z,3.77
2019-06-15T23:46:42.618Z,4.57
2019-06-15T23:49:12.477Z,4.40
2019-06-15T23:51:42.554Z,4.30
2019-06-15T23:54:12.779Z,5.07
2019-06-15T23:56:42.913Z,4.53
2019-06-15T23:59:12.992Z,4.33
